• Join FlightAware (Why Join?)
  • Login
  • US Flag 
11:01AM EST


 

Airport Tracker/Info


-or-


 

Live Flight TrackerFlight Track Log ✈ N405DD ✈ 08-May-2013 ✈ KBJI - KGFK

Flight Track Log - Related Links

Times and Time Zones

All times are in EDT time to prevent confusion due to time zone crossing. See the N405DD flight status page for this flight to view local times or setup timezone preferences in your user account.

Time Position Orientation Groundspeed Altitude Reporting Facility
EDT Latitude Longitude Course Direction KTS MPH feet Rate Location/Type
03:09PM 47.5347 -95.0694 287° West 149 171 4,600  Level Minneapolis Center
03:10PM 47.5483 -95.1256 290° West 146 168 5,800 1,020 Climbing Minneapolis Center
03:11PM 47.5603 -95.1883 286° West 153 176 6,700 1,080 Climbing Minneapolis Center
03:12PM 47.5742 -95.2503 288° West 157 181 8,100 1,140 Climbing Minneapolis Center
03:13PM 47.5867 -95.3122 287° West 158 182 9,100 1,200 Climbing Minneapolis Center
03:14PM 47.6031 -95.3822 287° West  Level FlightAware Approximate
03:14PM 47.6036 -95.3928 287° West 167 192 10,600  Level Minneapolis Center
03:15PM 47.6175 -95.4606 287° West 171 197 11,800 660 Climbing Minneapolis Center
03:16PM 47.6314 -95.5342 286° West 179 206 12,000 60 Climbing Minneapolis Center
03:17PM 47.6483 -95.6208 286° West 209 241 12,000 -60 Level Minneapolis Center
03:18PM 47.6656 -95.7069 287° West 218 251 11,900 -60 Descending Minneapolis Center
03:19PM 47.6831 -95.7942 287° West 220 253 11,900  Level Minneapolis Center
03:20PM 47.7003 -95.8808 286° West 220 253 11,900 -360 Level Minneapolis Center
03:21PM 47.7181 -95.9708 286° West 226 260 11,200 -600 Descending Minneapolis Center
03:27PM 47.8200 -96.4940 286° West 207 238 7,900 -540 Descending FlightAware
03:27PM 47.8280 -96.5350 286° West 206 237 7,900  Level FlightAware
03:28PM 47.8340 -96.5650 287° West 206 237 7,900  Level FlightAware
03:28PM 47.8400 -96.5980 285° West 206 237 7,900 -600 Level FlightAware
03:29PM 47.8510 -96.6540 286° West 224 258 7,300 -840 Descending FlightAware
03:29PM 47.8560 -96.6920 281° West 228 262 7,100 -660 Descending FlightAware
03:30PM 47.8610 -96.7390 279° West 228 262 6,700 -780 Descending FlightAware
03:30PM 47.8650 -96.7780 279° West 232 267 6,400 -900 Descending FlightAware
03:30PM 47.8640 -96.8240 268° West 230 265 5,900 -1,020 Descending FlightAware
03:31PM 47.8620 -96.8720 266° West 228 262 5,400 -1,140 Descending FlightAware
03:31PM 47.8610 -96.9140 268° West 227 261 4,900 -1,080 Descending FlightAware
03:32PM 47.8600 -96.9350 266° West 227 261 4,700 -1,800 Descending FlightAware
03:32PM 47.8580 -96.9750 266° West 226 260 3,700 -2,280 Descending FlightAware
03:32PM 47.8570 -96.9960 266° West 222 255 3,200 -1,080 Descending FlightAware
03:33PM 47.8540 -97.0410 264° West 205 236 2,900 -360 Descending FlightAware
03:33PM 47.8510 -97.0770 263° West 198 228 2,900  Level FlightAware
03:34PM 47.8510 -97.1150 270° West 196 226 2,900  Level FlightAware
03:34PM 47.8510 -97.1580 270° West 198 228 2,900 -180 Level FlightAware
03:34PM 47.8530 -97.1720 282° West 195 224 2,800 -480 Descending FlightAware
03:35PM 47.8620 -97.1820 323° Northwest 181 208 2,700 -480 Descending FlightAware
03:35PM 47.8710 -97.1820 360° North 180 207 2,600 -1,440 Descending FlightAware
03:35PM 47.8880 -97.1810 North 176 203 2,000 -1,620 Descending FlightAware
03:35PM 47.8940 -97.1810 360° North 165 190 1,800 -1,080 Descending FlightAware
03:36PM 47.9110 -97.1810 360° North 137 158 1,400 -840 Descending FlightAware
03:36PM 47.9240 -97.1810 360° North 102 117 1,100 -600 Descending FlightAware
03:37PM 47.9360 -97.1810 360° North 81 93 900 -240 Descending FlightAware
03:37PM 47.9460 -97.1800 North 81 93 900  Level FlightAware